Weather Data

Pearl Creek Farm: 8878 N Farm Road 75, Walnut Grove MO 65770

<== Previous Day (Wednesday 09 Aug 2017) | Next Day (Friday 11 Aug 2017) ==>

Summary Precipitation Data For Thursday 10 August 2017

ElementValueUnits
Precipitation0"
Notes(none)
SourcePearl Creek Farm

Summary Temperature Data For Thursday 10 August 2017

ElementValueUnits
High Temperature84 oF
Low Temperature69 oF
Average Temperature76 oF
High Humidity96 %
Low Humidity65 %
Average Humidity81 %
SourceSpringfield-Branson National Airport (SGF)

Detail Temperature Data For Thursday 10 August 2017

Date / TimeTemp (F)RH (%)Dew Pt (F)Report Date / TimeSource
2017-08-10 07:52:00 73 90 70.0 2017-12-29 17:00:26.17417 Springfield-Branson National Airport (SGF)
2017-08-10 08:52:00 71 94 69.0 2017-12-29 17:00:26.17417 Springfield-Branson National Airport (SGF)
2017-08-10 09:52:00 71 96 70.0 2017-12-29 17:00:26.17417 Springfield-Branson National Airport (SGF)
2017-08-10 00:52:00 72 79 65.0 2017-12-29 17:00:26.17417 Springfield-Branson National Airport (SGF)
2017-08-10 01:52:00 72 79 65.0 2017-12-29 17:00:26.17417 Springfield-Branson National Airport (SGF)
2017-08-10 02:52:00 72 82 66.0 2017-12-29 17:00:26.17417 Springfield-Branson National Airport (SGF)
2017-08-10 03:52:00 71 84 66.0 2017-12-29 17:00:26.17417 Springfield-Branson National Airport (SGF)
2017-08-10 04:52:00 70 87 66.0 2017-12-29 17:00:26.17417 Springfield-Branson National Airport (SGF)
2017-08-10 05:52:00 69 93 67.0 2017-12-29 17:00:26.17417 Springfield-Branson National Airport (SGF)
2017-08-10 06:52:00 71 90 68.0 2017-12-29 17:00:26.17417 Springfield-Branson National Airport (SGF)
2017-08-10 10:52:00 74 91 71.0 2017-12-29 17:00:26.17417 Springfield-Branson National Airport (SGF)
2017-08-10 11:52:00 78 79 71.0 2017-12-29 17:00:26.17417 Springfield-Branson National Airport (SGF)
2017-08-10 12:52:00 82 72 72.0 2017-12-29 17:00:26.17417 Springfield-Branson National Airport (SGF)
2017-08-10 13:52:00 84 65 71.0 2017-12-29 17:00:26.17417 Springfield-Branson National Airport (SGF)
2017-08-10 14:52:00 83 67 71.0 2017-12-29 17:00:26.17417 Springfield-Branson National Airport (SGF)
2017-08-10 15:52:00 84 67 72.0 2017-12-29 17:00:26.17417 Springfield-Branson National Airport (SGF)
2017-08-10 16:52:00 84 65 71.0 2017-12-29 17:00:26.17417 Springfield-Branson National Airport (SGF)
2017-08-10 17:52:00 83 67 71.0 2017-12-29 17:00:26.17417 Springfield-Branson National Airport (SGF)
2017-08-10 18:52:00 79 79 72.0 2017-12-29 17:00:26.17417 Springfield-Branson National Airport (SGF)
2017-08-10 19:52:00 78 82 72.0 2017-12-29 17:00:26.17417 Springfield-Branson National Airport (SGF)
2017-08-10 20:52:00 77 85 72.0 2017-12-29 17:00:26.17417 Springfield-Branson National Airport (SGF)
2017-08-10 21:52:00 76 88 72.0 2017-12-29 17:00:26.17417 Springfield-Branson National Airport (SGF)
2017-08-10 22:52:00 76 85 71.0 2017-12-29 17:00:26.17417 Springfield-Branson National Airport (SGF)
2017-08-10 23:52:00 75 88 71.0 2017-12-29 17:00:26.17417 Springfield-Branson National Airport (SGF)

A total of 24 rows are displayed.